Galena, Nevada Weather observations

Data are for 60 minute period ending nearest time listed.
 Day   Time    Ave.   Ave.  Ave.  Vector   Max.   Total    Solar   
  of    of     Air    Rel.  Wind   Wind    Wind  Precip.   Rad.    
Year   Day     Temp.  Hum.  Speed  Dir.    Gust                    
2026   (PST)    F      %     mph   deg.    mph     in.     W/m2    
------------------------------------------------------------------- 
 242    2:00   52.0    45    3.0   296      6.0    2.02       0  
 242    3:00   51.0    48    4.0   323      7.0    2.02       0  
 242    4:00   48.0    53    3.0   296      5.0    2.02       0  
 242    5:00   48.0    53    3.0   299      6.0    2.02       0  
 242    6:00   53.0    41    4.0   298      6.0    2.02       7  
 242    7:00   63.0    30    0.0   184      5.0    2.02     138  
 242    8:00   65.0    24    3.0    74      5.0    2.02     335  
 242    9:00   67.0    25    4.0    61      7.0    2.02     525  
 242   10:00   70.0    22    5.0   113     11.0    2.02     686  
 242   11:00   73.0    16    8.0   157     14.0    2.02     807  
 242   12:00   76.0    16    6.0   102     17.0    2.02     873  
 242   13:00   78.0    15    5.0    88     15.0    2.02     879  
 242   14:00   80.0    14    9.0    82     15.0    2.02     826  
 242   15:00   81.0    14    8.0     8     17.0    2.02     719  
 242   16:00   81.0    14    6.0    39     20.0    2.02     544  
 242   17:00   80.0    16    4.0   250     15.0    2.02     377  
 242   18:00   76.0    21    5.0   277     12.0    2.02      88  
 242   19:00   71.0    25    7.0   284     16.0    2.02      13  
 242   20:00   68.0    30    6.0   236      9.0    2.02       0  
 242   21:00   64.0    35    4.0   244      9.0    2.02       0  
 242   22:00   63.0    34    5.0   254      9.0    2.02       0  
 242   23:00   61.0    35    2.0   272      7.0    2.02       0  
 243    0:00   60.0    36    2.0   257      5.0    2.02       0  
 243    1:00   58.0    39    3.0   226      6.0    2.02       0  

Return to Galena, Nevada graphs page.


Western Regional Climate Center,wrcc@dri.edu